createdAt,value
2022-11-13T00:01:11.178Z,6.91
2022-11-13T00:03:37.493Z,6.77
2022-11-13T00:06:04.028Z,6.81
2022-11-13T00:08:30.667Z,7.10
2022-11-13T00:11:01.854Z,7.12
2022-11-13T00:13:30.553Z,7.07
2022-11-13T00:15:57.972Z,7.11
2022-11-13T00:18:24.356Z,7.15
2022-11-13T00:20:50.765Z,7.01
2022-11-13T00:23:17.089Z,6.88
2022-11-13T00:25:43.431Z,6.91
2022-11-13T00:28:09.745Z,6.91
2022-11-13T00:30:36.080Z,6.91
2022-11-13T00:33:02.391Z,6.79
2022-11-13T00:35:28.730Z,6.71
2022-11-13T00:37:55.045Z,6.64
2022-11-13T00:40:21.428Z,6.84
2022-11-13T00:42:47.764Z,6.78
2022-11-13T00:45:14.284Z,6.77
2022-11-13T00:47:40.590Z,6.85
2022-11-13T00:50:06.993Z,6.77
2022-11-13T00:52:33.318Z,6.56
2022-11-13T00:54:59.634Z,6.55
2022-11-13T00:57:26.011Z,6.55
2022-11-13T00:59:52.352Z,6.58
2022-11-13T01:02:18.657Z,6.28
2022-11-13T01:04:45.073Z,6.24
2022-11-13T01:07:11.428Z,6.40
2022-11-13T01:09:37.812Z,6.20
2022-11-13T01:12:04.262Z,6.28
2022-11-13T01:14:30.575Z,6.21
2022-11-13T01:16:56.888Z,6.24
2022-11-13T01:19:23.265Z,6.18
2022-11-13T01:21:49.575Z,6.13
2022-11-13T01:24:15.934Z,6.11
2022-11-13T01:26:42.336Z,6.03
2022-11-13T01:29:09.773Z,6.09
2022-11-13T01:31:36.090Z,6.04
2022-11-13T01:34:02.405Z,6.23
2022-11-13T01:36:28.866Z,6.25
2022-11-13T01:38:55.262Z,6.36
2022-11-13T01:41:25.852Z,6.44
2022-11-13T01:43:52.498Z,6.40
2022-11-13T01:46:35.218Z,6.47
2022-11-13T01:49:03.623Z,6.40
2022-11-13T01:51:34.165Z,6.16
2022-11-13T01:54:01.182Z,6.24
2022-11-13T01:56:27.762Z,6.74
2022-11-13T01:58:55.052Z,7.12
2022-11-13T02:01:21.421Z,7.34
2022-11-13T02:03:47.733Z,7.37
2022-11-13T02:06:14.079Z,7.34
2022-11-13T02:08:40.391Z,7.13
2022-11-13T02:11:06.706Z,6.89
2022-11-13T02:13:33.042Z,6.90
2022-11-13T02:15:59.374Z,6.96
2022-11-13T02:18:26.196Z,7.02
2022-11-13T02:20:52.797Z,7.10
2022-11-13T02:23:29.198Z,7.11
2022-11-13T02:25:55.540Z,7.22
2022-11-13T02:28:22.251Z,7.35
2022-11-13T02:30:48.563Z,7.42
2022-11-13T02:33:22.019Z,7.34
2022-11-13T02:35:48.523Z,7.08
2022-11-13T02:38:14.829Z,7.09
2022-11-13T02:40:41.160Z,7.24
2022-11-13T02:43:07.565Z,7.14
2022-11-13T02:45:33.914Z,7.18
2022-11-13T02:48:00.912Z,7.38
2022-11-13T02:50:27.304Z,7.43
2022-11-13T02:52:53.713Z,7.47
2022-11-13T02:55:20.160Z,7.41
2022-11-13T02:57:46.492Z,7.33
2022-11-13T03:00:14.238Z,7.38
2022-11-13T03:02:40.814Z,7.42
2022-11-13T03:05:12.538Z,7.32
2022-11-13T03:07:39.856Z,7.27
2022-11-13T03:10:06.433Z,6.93
2022-11-13T03:12:32.893Z,6.74
2022-11-13T03:14:59.225Z,6.49
2022-11-13T03:17:25.540Z,6.13
2022-11-13T03:19:51.924Z,6.13
2022-11-13T03:22:18.238Z,6.19
2022-11-13T03:24:44.548Z,6.08
2022-11-13T03:27:10.868Z,6.18
2022-11-13T03:29:37.222Z,6.35
2022-11-13T03:32:03.555Z,6.11
2022-11-13T03:34:30.192Z,6.36
2022-11-13T03:36:56.499Z,6.37
2022-11-13T03:39:22.830Z,6.44
2022-11-13T03:41:49.143Z,6.69
2022-11-13T03:44:15.509Z,6.74
2022-11-13T03:46:41.824Z,6.76
2022-11-13T03:49:08.168Z,6.72
2022-11-13T03:51:34.507Z,6.68
2022-11-13T03:54:00.903Z,6.69
2022-11-13T03:56:27.664Z,6.82
2022-11-13T03:58:53.986Z,6.81
2022-11-13T04:01:20.387Z,6.77
2022-11-13T04:03:46.778Z,6.55
2022-11-13T04:06:14.471Z,6.49
2022-11-13T04:08:40.826Z,6.51
2022-11-13T04:11:10.239Z,6.42
2022-11-13T04:13:36.541Z,6.66
2022-11-13T04:16:03.111Z,6.60
2022-11-13T04:18:32.089Z,6.79
2022-11-13T04:21:01.665Z,6.86
2022-11-13T04:23:27.979Z,7.09
2022-11-13T04:25:54.405Z,7.32
2022-11-13T04:28:20.762Z,7.37
2022-11-13T04:30:47.090Z,7.59
2022-11-13T04:33:13.440Z,7.72
2022-11-13T04:35:41.654Z,7.44
2022-11-13T04:38:07.956Z,7.17
2022-11-13T04:40:34.285Z,7.08
2022-11-13T04:43:00.613Z,7.00
2022-11-13T04:45:27.578Z,6.84
2022-11-13T04:47:53.926Z,6.65
2022-11-13T04:50:20.401Z,6.45
2022-11-13T04:52:46.706Z,6.44
2022-11-13T04:55:13.034Z,6.37
2022-11-13T04:57:39.398Z,6.13
2022-11-13T05:00:06.122Z,6.54
2022-11-13T05:02:32.483Z,6.89
2022-11-13T05:05:04.387Z,6.84
2022-11-13T05:07:31.405Z,6.92
2022-11-13T05:09:57.744Z,6.94
2022-11-13T05:12:24.058Z,6.96
2022-11-13T05:14:50.446Z,6.75
2022-11-13T05:17:16.825Z,6.95
2022-11-13T05:19:43.154Z,6.80
2022-11-13T05:22:09.468Z,6.81
2022-11-13T05:24:35.782Z,6.82
2022-11-13T05:27:02.109Z,6.80
2022-11-13T05:29:28.431Z,6.65
2022-11-13T05:31:54.986Z,6.36
2022-11-13T05:34:21.389Z,6.21
2022-11-13T05:36:47.699Z,6.19
2022-11-13T05:39:14.034Z,6.05
2022-11-13T05:41:40.513Z,5.94
2022-11-13T05:44:06.850Z,6.00
2022-11-13T05:46:33.161Z,6.20
2022-11-13T05:49:00.200Z,6.34
2022-11-13T05:51:27.503Z,6.27
2022-11-13T05:53:53.825Z,6.14
2022-11-13T05:56:21.539Z,6.23
2022-11-13T05:58:47.911Z,6.14
2022-11-13T06:01:14.217Z,6.10
2022-11-13T06:03:40.634Z,6.18
2022-11-13T06:06:07.408Z,6.09
2022-11-13T06:08:33.726Z,5.82
2022-11-13T06:11:00.688Z,5.86
2022-11-13T06:13:27.001Z,6.11
2022-11-13T06:15:53.567Z,5.97
2022-11-13T06:18:26.528Z,5.93
2022-11-13T06:20:53.255Z,6.20
2022-11-13T06:23:19.577Z,6.24
2022-11-13T06:25:45.968Z,6.00
2022-11-13T06:28:12.285Z,6.14
2022-11-13T06:30:38.639Z,6.03
2022-11-13T06:33:05.105Z,5.91
2022-11-13T06:35:32.039Z,5.79
2022-11-13T06:37:58.367Z,5.94
2022-11-13T06:40:24.702Z,5.99
2022-11-13T06:42:51.032Z,5.69
2022-11-13T06:45:17.368Z,5.54
2022-11-13T06:47:43.749Z,5.45
2022-11-13T06:50:10.099Z,5.40
2022-11-13T06:52:36.417Z,5.33
2022-11-13T06:55:02.783Z,5.34
2022-11-13T06:57:29.111Z,5.39
2022-11-13T06:59:55.477Z,5.57
2022-11-13T07:02:21.799Z,5.77
2022-11-13T07:04:48.109Z,6.00
2022-11-13T07:07:14.471Z,5.99
2022-11-13T07:09:40.805Z,5.84
2022-11-13T07:12:07.158Z,6.01
2022-11-13T07:14:33.472Z,6.03
2022-11-13T07:17:10.924Z,6.12
2022-11-13T07:19:37.282Z,6.44
2022-11-13T07:22:03.610Z,6.54
2022-11-13T07:24:29.944Z,6.92
2022-11-13T07:26:56.271Z,7.17
2022-11-13T07:29:22.605Z,7.18
2022-11-13T07:31:48.938Z,7.24
2022-11-13T07:34:15.310Z,7.40
2022-11-13T07:36:41.661Z,7.49
2022-11-13T07:39:08.081Z,7.56
2022-11-13T07:41:34.456Z,7.60
2022-11-13T07:44:02.564Z,7.69
2022-11-13T07:46:30.783Z,7.80
2022-11-13T07:48:57.148Z,7.90
2022-11-13T07:51:23.558Z,8.11
2022-11-13T07:53:49.872Z,8.37
2022-11-13T07:56:20.304Z,8.56
2022-11-13T07:58:49.363Z,8.68
2022-11-13T08:01:15.869Z,9.02
2022-11-13T08:03:42.255Z,9.20
2022-11-13T08:06:08.746Z,9.31
2022-11-13T08:08:35.167Z,9.42
2022-11-13T08:11:05.410Z,9.48
2022-11-13T08:13:31.810Z,9.51
2022-11-13T08:16:01.615Z,9.63
2022-11-13T08:18:31.320Z,9.77
2022-11-13T08:20:57.779Z,9.94
2022-11-13T08:23:24.094Z,10.02
2022-11-13T08:25:53.040Z,10.12
2022-11-13T08:28:19.371Z,10.16
2022-11-13T08:30:45.791Z,10.22
2022-11-13T08:33:12.206Z,10.14
2022-11-13T08:35:38.546Z,10.20
2022-11-13T08:38:05.354Z,10.25
2022-11-13T08:40:31.702Z,10.34
2022-11-13T08:42:58.578Z,10.36
2022-11-13T08:45:24.964Z,10.42
2022-11-13T08:47:51.287Z,10.46
2022-11-13T08:50:17.615Z,10.59
2022-11-13T08:52:43.980Z,10.60
2022-11-13T08:55:10.392Z,10.61
2022-11-13T08:57:36.723Z,10.69
2022-11-13T09:00:03.211Z,10.61
2022-11-13T09:02:29.557Z,10.53
2022-11-13T09:04:55.876Z,10.52
2022-11-13T09:07:27.107Z,10.56
2022-11-13T09:09:53.771Z,10.57
2022-11-13T09:12:20.089Z,10.52
2022-11-13T09:14:46.406Z,10.46
2022-11-13T09:17:12.875Z,10.39
2022-11-13T09:19:39.210Z,10.48
2022-11-13T09:22:05.609Z,10.52
2022-11-13T09:24:31.925Z,10.69
2022-11-13T09:26:58.277Z,10.72
2022-11-13T09:29:25.977Z,10.83
2022-11-13T09:31:52.481Z,10.91
2022-11-13T09:34:18.814Z,11.06
2022-11-13T09:36:45.160Z,11.26
2022-11-13T09:39:11.487Z,11.42
2022-11-13T09:41:38.691Z,11.61
2022-11-13T09:44:06.742Z,11.77
2022-11-13T09:46:43.554Z,11.95
2022-11-13T09:49:14.857Z,12.10
2022-11-13T09:51:41.189Z,12.23
2022-11-13T09:54:12.049Z,12.22
2022-11-13T09:56:50.561Z,12.22
2022-11-13T09:59:31.657Z,12.27
2022-11-13T10:02:00.739Z,12.39
2022-11-13T10:04:31.305Z,12.57
2022-11-13T10:07:05.175Z,12.66
2022-11-13T10:09:51.565Z,12.77
2022-11-13T10:12:18.032Z,12.79
2022-11-13T10:14:45.977Z,12.84
2022-11-13T10:17:18.933Z,13.00
2022-11-13T10:19:45.223Z,13.20
2022-11-13T10:22:32.239Z,13.36
2022-11-13T10:25:00.083Z,13.41
2022-11-13T10:27:26.413Z,13.50
2022-11-13T10:29:53.365Z,13.73
2022-11-13T10:32:23.141Z,13.87
2022-11-13T10:35:01.826Z,14.10
2022-11-13T10:37:34.415Z,14.23
2022-11-13T10:40:00.768Z,14.12
2022-11-13T10:42:27.771Z,13.96
2022-11-13T10:44:57.964Z,14.10
2022-11-13T10:47:56.784Z,14.16
2022-11-13T10:50:21.889Z,14.12
2022-11-13T10:52:48.770Z,14.18
2022-11-13T10:55:31.985Z,14.25
2022-11-13T10:57:59.078Z,14.38
2022-11-13T11:00:32.836Z,14.46
2022-11-13T11:02:59.154Z,14.56
2022-11-13T11:05:25.630Z,14.48
2022-11-13T11:07:52.424Z,14.16
2022-11-13T11:10:57.152Z,14.39
2022-11-13T11:13:23.854Z,14.73
2022-11-13T11:15:59.793Z,14.96
2022-11-13T11:18:40.826Z,15.23
2022-11-13T11:21:08.258Z,15.30
2022-11-13T11:23:39.968Z,15.23
2022-11-13T11:26:08.672Z,15.38
2022-11-13T11:28:36.312Z,15.66
2022-11-13T11:31:09.055Z,15.72
2022-11-13T11:33:36.745Z,15.56
2022-11-13T11:36:22.106Z,15.72
2022-11-13T11:38:51.025Z,15.66
2022-11-13T11:41:17.952Z,15.11
2022-11-13T11:43:45.778Z,15.27
2022-11-13T11:46:12.658Z,15.49
2022-11-13T11:48:39.021Z,15.56
2022-11-13T11:51:05.405Z,16.02
2022-11-13T11:53:40.194Z,16.26
2022-11-13T11:56:16.399Z,16.16
2022-11-13T11:58:52.248Z,16.28
2022-11-13T12:01:37.454Z,16.30
2022-11-13T12:04:03.747Z,16.44
2022-11-13T12:06:34.450Z,16.62
2022-11-13T12:09:03.234Z,16.07
2022-11-13T12:11:31.135Z,15.81
2022-11-13T12:14:00.465Z,15.79
2022-11-13T12:16:30.221Z,15.62
2022-11-13T12:19:02.616Z,15.80
2022-11-13T12:21:47.788Z,15.86
2022-11-13T12:24:32.946Z,14.98
2022-11-13T12:26:59.239Z,15.04
2022-11-13T12:29:33.165Z,14.92
2022-11-13T12:32:17.321Z,15.46
2022-11-13T12:34:44.811Z,15.69
2022-11-13T12:37:22.529Z,15.52
2022-11-13T12:40:07.328Z,15.47
2022-11-13T12:43:09.340Z,15.29
2022-11-13T12:45:45.746Z,15.09
2022-11-13T12:48:18.190Z,14.65
2022-11-13T12:50:44.513Z,14.40
2022-11-13T12:53:11.473Z,14.11
2022-11-13T12:55:38.543Z,13.87
2022-11-13T12:58:09.176Z,13.48
2022-11-13T13:00:35.563Z,13.30
2022-11-13T13:03:08.626Z,13.32
2022-11-13T13:05:34.933Z,13.09
2022-11-13T13:08:10.833Z,12.75
2022-11-13T13:10:50.285Z,12.17
2022-11-13T13:13:23.958Z,12.16
2022-11-13T13:16:09.205Z,12.08
2022-11-13T13:18:36.261Z,11.88
2022-11-13T13:21:03.161Z,11.88
2022-11-13T13:23:39.399Z,11.76
2022-11-13T13:26:15.120Z,11.54
2022-11-13T13:28:42.972Z,11.34
2022-11-13T13:31:15.377Z,10.96
2022-11-13T13:33:41.672Z,10.57
2022-11-13T13:36:15.707Z,10.65
2022-11-13T13:38:50.933Z,10.70
2022-11-13T13:41:21.587Z,10.76
2022-11-13T13:43:54.399Z,11.13
2022-11-13T13:46:22.201Z,10.91
2022-11-13T13:48:49.105Z,10.75
2022-11-13T13:51:25.436Z,10.62
2022-11-13T13:53:51.754Z,10.73
2022-11-13T13:56:18.812Z,11.02
2022-11-13T13:58:45.131Z,11.07
2022-11-13T14:01:20.018Z,11.04
2022-11-13T14:03:46.720Z,11.11
2022-11-13T14:06:22.798Z,11.03
2022-11-13T14:08:49.168Z,11.09
2022-11-13T14:11:19.990Z,10.99
2022-11-13T14:13:46.325Z,10.96
2022-11-13T14:16:13.961Z,10.71
2022-11-13T14:18:40.308Z,10.58
2022-11-13T14:21:16.541Z,10.59
2022-11-13T14:23:47.106Z,10.54
2022-11-13T14:26:13.546Z,10.51
2022-11-13T14:28:59.042Z,10.43
2022-11-13T14:31:26.844Z,10.49
2022-11-13T14:33:53.163Z,10.36
2022-11-13T14:36:24.909Z,10.50
2022-11-13T14:38:52.364Z,10.40
2022-11-13T14:41:20.834Z,10.30
2022-11-13T14:43:54.277Z,10.15
2022-11-13T14:46:26.701Z,10.23
2022-11-13T14:48:54.071Z,10.11
2022-11-13T14:51:27.680Z,10.00
2022-11-13T14:53:58.339Z,9.72
2022-11-13T14:56:31.609Z,9.68
2022-11-13T14:59:06.385Z,9.58
2022-11-13T15:01:32.736Z,9.47
2022-11-13T15:03:59.157Z,9.41
2022-11-13T15:06:25.978Z,9.29
2022-11-13T15:08:55.765Z,9.03
2022-11-13T15:11:22.752Z,9.03
2022-11-13T15:13:50.109Z,8.99
2022-11-13T15:16:21.580Z,9.00
2022-11-13T15:18:58.965Z,8.88
2022-11-13T15:21:25.318Z,8.85
2022-11-13T15:23:51.640Z,8.92
2022-11-13T15:26:17.979Z,8.47
2022-11-13T15:28:44.299Z,8.31
2022-11-13T15:31:25.395Z,8.21
2022-11-13T15:33:51.744Z,8.36
2022-11-13T15:36:18.082Z,8.20
2022-11-13T15:38:44.437Z,8.11
2022-11-13T15:41:20.436Z,8.14
2022-11-13T15:43:47.575Z,7.90
2022-11-13T15:46:15.586Z,7.70
2022-11-13T15:48:41.992Z,7.43
2022-11-13T15:51:28.546Z,7.37
2022-11-13T15:53:56.499Z,7.27
2022-11-13T15:56:23.254Z,7.25
2022-11-13T15:58:49.602Z,7.15
2022-11-13T16:01:15.964Z,6.96
2022-11-13T16:03:42.323Z,7.01
2022-11-13T16:06:09.386Z,6.82
2022-11-13T16:08:35.701Z,6.56
2022-11-13T16:11:02.254Z,6.60
2022-11-13T16:13:29.065Z,6.59
2022-11-13T16:15:55.865Z,6.48
2022-11-13T16:18:29.074Z,6.34
2022-11-13T16:20:55.396Z,6.05
2022-11-13T16:23:22.377Z,5.88
2022-11-13T16:25:49.342Z,5.76
2022-11-13T16:28:16.266Z,5.49
2022-11-13T16:30:43.217Z,5.55
2022-11-13T16:33:10.054Z,5.59
2022-11-13T16:35:36.397Z,5.49
2022-11-13T16:38:02.795Z,5.55
2022-11-13T16:40:29.263Z,5.39
2022-11-13T16:42:55.828Z,5.59
2022-11-13T16:45:22.202Z,5.70
2022-11-13T16:47:50.398Z,5.66
2022-11-13T16:50:22.172Z,5.49
2022-11-13T16:52:50.223Z,5.48
2022-11-13T16:55:16.815Z,5.25
2022-11-13T16:57:43.222Z,5.14
2022-11-13T17:00:12.083Z,5.09
2022-11-13T17:02:38.431Z,5.06
2022-11-13T17:05:04.969Z,5.08
2022-11-13T17:07:31.366Z,5.10
2022-11-13T17:10:24.072Z,5.06
2022-11-13T17:12:44.030Z,5.09
2022-11-13T17:15:10.486Z,4.90
2022-11-13T17:17:36.808Z,4.86
2022-11-13T17:20:03.176Z,4.75
2022-11-13T17:22:29.551Z,4.63
2022-11-13T17:24:55.871Z,4.66
2022-11-13T17:27:22.203Z,4.51
2022-11-13T17:29:48.570Z,4.44
2022-11-13T17:32:14.950Z,4.48
2022-11-13T17:34:43.307Z,4.52
2022-11-13T17:37:09.746Z,4.55
2022-11-13T17:39:36.063Z,4.41
2022-11-13T17:42:02.387Z,4.40
2022-11-13T17:44:28.709Z,4.40
2022-11-13T17:46:55.030Z,4.23
2022-11-13T17:49:21.366Z,4.25
2022-11-13T17:51:47.686Z,4.11
2022-11-13T17:54:14.055Z,4.12
2022-11-13T17:56:42.736Z,4.31
2022-11-13T17:59:11.007Z,4.21
2022-11-13T18:01:37.672Z,4.29
2022-11-13T18:04:04.403Z,4.34
2022-11-13T18:06:30.722Z,4.35
2022-11-13T18:08:57.124Z,4.36
2022-11-13T18:11:24.390Z,4.38
2022-11-13T18:13:50.904Z,4.51
2022-11-13T18:16:21.297Z,4.51
2022-11-13T18:18:48.320Z,4.50
2022-11-13T18:21:23.727Z,4.55
2022-11-13T18:23:55.546Z,4.50
2022-11-13T18:26:21.916Z,4.41
2022-11-13T18:28:48.258Z,4.36
2022-11-13T18:31:15.547Z,4.43
2022-11-13T18:33:41.943Z,4.48
2022-11-13T18:36:08.754Z,4.25
2022-11-13T18:38:35.232Z,4.16
2022-11-13T18:41:08.586Z,4.26
2022-11-13T18:43:35.108Z,4.31
2022-11-13T18:46:06.538Z,4.15
2022-11-13T18:48:33.722Z,4.25
2022-11-13T18:51:00.765Z,4.22
2022-11-13T18:53:27.512Z,4.15
2022-11-13T18:55:58.414Z,4.22
2022-11-13T18:58:24.987Z,4.31
2022-11-13T19:00:51.321Z,4.37
2022-11-13T19:03:17.819Z,4.40
2022-11-13T19:05:47.237Z,4.42
2022-11-13T19:08:13.644Z,4.40
2022-11-13T19:10:40.222Z,4.47
2022-11-13T19:13:07.281Z,4.52
2022-11-13T19:15:37.616Z,4.43
2022-11-13T19:18:04.646Z,4.37
2022-11-13T19:20:30.963Z,4.35
2022-11-13T19:22:57.345Z,4.41
2022-11-13T19:25:23.699Z,4.38
2022-11-13T19:27:50.098Z,4.35
2022-11-13T19:30:16.417Z,4.42
2022-11-13T19:32:42.827Z,4.41
2022-11-13T19:35:09.165Z,4.37
2022-11-13T19:37:36.249Z,4.38
2022-11-13T19:40:02.670Z,4.48
2022-11-13T19:42:29.068Z,4.48
2022-11-13T19:44:55.384Z,4.51
2022-11-13T19:47:21.800Z,4.49
2022-11-13T19:49:48.298Z,4.41
2022-11-13T19:52:14.631Z,4.34
2022-11-13T19:54:41.991Z,4.33
2022-11-13T19:57:08.330Z,4.51
2022-11-13T19:59:34.710Z,4.39
2022-11-13T20:02:01.166Z,4.41
2022-11-13T20:04:27.593Z,4.37
2022-11-13T20:06:53.996Z,4.38
2022-11-13T20:09:20.369Z,4.36
2022-11-13T20:11:46.784Z,4.37
2022-11-13T20:14:13.291Z,4.40
2022-11-13T20:16:39.609Z,4.45
2022-11-13T20:19:05.953Z,4.44
2022-11-13T20:21:32.307Z,4.51
2022-11-13T20:23:59.152Z,4.46
2022-11-13T20:26:25.531Z,4.53
2022-11-13T20:28:51.874Z,4.58
2022-11-13T20:31:22.210Z,4.56
2022-11-13T20:33:52.514Z,4.56
2022-11-13T20:36:18.936Z,4.57
2022-11-13T20:38:48.403Z,4.62
2022-11-13T20:41:15.286Z,4.54
2022-11-13T20:43:41.711Z,4.53
2022-11-13T20:46:09.542Z,4.53
2022-11-13T20:48:36.017Z,4.66
2022-11-13T20:51:06.140Z,4.60
2022-11-13T20:53:32.461Z,4.56
2022-11-13T20:55:58.772Z,4.60
2022-11-13T20:58:25.143Z,4.56
2022-11-13T21:00:51.462Z,4.50
2022-11-13T21:03:17.804Z,4.41
2022-11-13T21:05:45.213Z,4.37
2022-11-13T21:08:11.551Z,4.32
2022-11-13T21:10:37.870Z,4.13
2022-11-13T21:13:04.203Z,3.94
2022-11-13T21:15:33.346Z,3.87
2022-11-13T21:17:59.866Z,3.82
2022-11-13T21:20:26.189Z,3.78
2022-11-13T21:22:52.523Z,3.81
2022-11-13T21:25:19.732Z,3.78
2022-11-13T21:27:46.075Z,3.67
2022-11-13T21:30:12.435Z,3.66
2022-11-13T21:32:39.366Z,3.71
2022-11-13T21:35:05.745Z,3.77
2022-11-13T21:37:33.003Z,3.70
2022-11-13T21:39:59.312Z,3.67
2022-11-13T21:42:25.661Z,3.62
2022-11-13T21:44:52.003Z,3.73
2022-11-13T21:47:18.677Z,3.71
2022-11-13T21:49:45.066Z,3.63
2022-11-13T21:52:11.726Z,3.60
2022-11-13T21:54:38.060Z,3.45
2022-11-13T21:57:04.375Z,3.41
2022-11-13T21:59:33.729Z,3.43
2022-11-13T22:02:00.098Z,3.44
2022-11-13T22:04:26.575Z,3.53
2022-11-13T22:06:53.012Z,3.48
2022-11-13T22:09:20.317Z,3.64
2022-11-13T22:11:46.645Z,3.61
2022-11-13T22:14:12.989Z,3.56
2022-11-13T22:16:40.157Z,3.56
2022-11-13T22:19:07.149Z,3.61
2022-11-13T22:21:33.474Z,3.59
2022-11-13T22:24:00.040Z,3.59
2022-11-13T22:26:26.702Z,3.59
2022-11-13T22:28:53.272Z,3.55
2022-11-13T22:31:23.565Z,3.56
2022-11-13T22:33:54.384Z,3.43
2022-11-13T22:36:25.228Z,3.38
2022-11-13T22:38:51.682Z,3.32
2022-11-13T22:41:22.981Z,3.31
2022-11-13T22:43:54.700Z,3.36
2022-11-13T22:46:21.972Z,3.50
2022-11-13T22:48:48.994Z,3.41
2022-11-13T22:51:16.055Z,3.43
2022-11-13T22:53:42.854Z,3.34
2022-11-13T22:56:12.695Z,3.21
2022-11-13T22:58:39.034Z,3.12
2022-11-13T23:01:06.015Z,3.11
2022-11-13T23:03:32.474Z,3.13
2022-11-13T23:06:00.830Z,3.22
2022-11-13T23:08:27.464Z,3.19
2022-11-13T23:10:54.071Z,3.17
2022-11-13T23:13:20.425Z,3.09
2022-11-13T23:15:46.750Z,3.20
2022-11-13T23:18:13.100Z,3.22
2022-11-13T23:20:42.743Z,3.25
2022-11-13T23:23:09.140Z,3.28
2022-11-13T23:25:35.642Z,3.04
2022-11-13T23:28:02.276Z,3.03
2022-11-13T23:30:28.606Z,3.09
2022-11-13T23:32:54.932Z,3.17
2022-11-13T23:35:21.254Z,3.23
2022-11-13T23:37:47.646Z,3.33
2022-11-13T23:40:13.961Z,3.33
2022-11-13T23:42:54.812Z,3.33
2022-11-13T23:45:21.725Z,3.42
2022-11-13T23:47:48.049Z,3.27
2022-11-13T23:50:14.461Z,3.32
2022-11-13T23:52:40.873Z,3.32
2022-11-13T23:55:07.348Z,3.27
2022-11-13T23:57:33.652Z,3.12
2022-11-13T23:59:59.984Z,3.26
